Time;durP1;ratioP1;P1;durP2;ratioP2;P2;SDS_P1;SDS_P2;PMS_P1;PMS_P2;Temp;Humidity;BMP_temperature;BMP_pressure;BME280_temperature;BME280_humidity;BME280_pressure;Samples;Min_cycle;Max_cycle;Signal;HPM_P1;HPM_P2
2023/09/08 00:02:26;;;;;;;13.38;9.85;;;24.50;99.90;;;;;;4997012;28;20030;-70
2023/09/08 00:04:52;;;;;;;13.57;10.05;;;24.50;99.90;;;;;;4996969;28;20034;-74
2023/09/08 00:07:17;;;;;;;10.73;9.63;;;24.50;99.90;;;;;;4996690;28;20022;-73
2023/09/08 00:09:43;;;;;;;11.15;9.48;;;24.50;99.90;;;;;;4996893;28;20038;-74
2023/09/08 00:12:08;;;;;;;12.35;10.25;;;24.40;99.90;;;;;;4996647;28;20397;-74
2023/09/08 00:14:34;;;;;;;11.23;9.93;;;24.50;99.90;;;;;;4996862;28;20476;-70
2023/09/08 00:17:00;;;;;;;12.93;10.30;;;24.40;99.90;;;;;;4996782;28;20022;-70
2023/09/08 00:19:25;;;;;;;10.00;9.00;;;24.40;99.90;;;;;;4996521;28;20037;-74
2023/09/08 00:21:51;;;;;;;10.73;9.63;;;24.40;99.90;;;;;;4996214;28;20470;-74
2023/09/08 00:24:18;;;;;;;10.98;9.80;;;24.40;99.90;;;;;;4996527;28;20031;-70
2023/09/08 00:26:44;;;;;;;12.65;9.43;;;24.40;99.90;;;;;;4996650;28;20352;-70
2023/09/08 00:29:10;;;;;;;11.77;10.52;;;24.40;99.90;;;;;;4995348;28;20021;-71
2023/09/08 00:31:35;;;;;;;10.70;9.60;;;24.40;99.90;;;;;;4996345;28;20085;-74
2023/09/08 00:34:01;;;;;;;12.60;10.73;;;24.40;99.90;;;;;;4996820;28;20559;-71
2023/09/08 00:36:26;;;;;;;13.15;10.18;;;24.30;99.90;;;;;;4996066;28;20085;-73
2023/09/08 00:38:52;;;;;;;11.77;9.90;;;24.30;99.90;;;;;;4996254;28;20044;-74
2023/09/08 00:41:18;;;;;;;10.55;9.55;;;24.30;99.90;;;;;;4996378;28;20019;-73
2023/09/08 00:43:43;;;;;;;11.98;10.32;;;24.30;99.90;;;;;;4996273;28;20096;-73
2023/09/08 00:46:09;;;;;;;11.20;10.10;;;24.30;99.90;;;;;;4996151;28;20533;-74
2023/09/08 00:48:35;;;;;;;11.60;10.40;;;24.30;99.90;;;;;;4995780;28;20027;-70
2023/09/08 00:51:02;;;;;;;12.07;10.98;;;24.20;99.90;;;;;;4996167;28;20387;-71
2023/09/08 00:53:27;;;;;;;11.88;10.55;;;24.20;99.90;;;;;;4996086;28;20029;-74
2023/09/08 00:55:54;;;;;;;11.90;10.60;;;24.20;99.90;;;;;;4996031;28;20125;-74
2023/09/08 00:58:20;;;;;;;12.75;11.45;;;24.20;99.90;;;;;;4995861;28;20027;-71
2023/09/08 01:00:46;;;;;;;12.90;11.27;;;24.10;99.90;;;;;;4995995;28;20054;-70
2023/09/08 01:03:12;;;;;;;12.93;11.57;;;24.20;99.90;;;;;;4995384;28;20027;-71
2023/09/08 01:05:38;;;;;;;13.27;11.93;;;24.10;99.90;;;;;;4996127;28;20435;-71
2023/09/08 01:08:04;;;;;;;13.13;11.85;;;24.10;99.90;;;;;;4995784;28;20055;-71
2023/09/08 01:10:30;;;;;;;14.45;12.23;;;24.10;99.90;;;;;;4995709;28;20030;-70
2023/09/08 01:12:55;;;;;;;16.98;12.82;;;24.10;99.90;;;;;;4995584;28;20119;-71
2023/09/08 01:15:21;;;;;;;14.02;12.25;;;24.10;99.90;;;;;;4995714;28;20484;-70
2023/09/08 01:17:47;;;;;;;13.93;12.45;;;24.00;99.90;;;;;;4994006;28;20033;-75
2023/09/08 01:20:23;;;;;;;15.25;13.27;;;24.00;99.90;;;;;;4995409;28;20411;-73
2023/09/08 01:23:11;;;;;;;15.07;11.88;;;24.00;99.90;;;;;;4995444;28;20048;-73
2023/09/08 01:25:50;;;;;;;13.65;12.25;;;24.00;99.90;;;;;;4995491;28;20519;-70
2023/09/08 01:28:18;;;;;;;12.95;11.65;;;24.00;99.90;;;;;;4995330;28;20065;-72
2023/09/08 01:30:44;;;;;;;14.18;11.98;;;23.90;99.90;;;;;;4995345;28;20030;-74
2023/09/08 01:33:11;;;;;;;13.80;12.40;;;24.00;99.90;;;;;;4994885;28;20010;-70
2023/09/08 01:35:36;;;;;;;13.00;11.80;;;23.90;99.90;;;;;;4995443;28;20467;-71
2023/09/08 01:38:02;;;;;;;13.85;12.23;;;23.90;99.90;;;;;;4995240;28;20026;-71
2023/09/08 01:40:28;;;;;;;14.30;11.70;;;23.90;99.90;;;;;;4994768;28;20042;-70
2023/09/08 01:42:53;;;;;;;14.30;11.27;;;23.80;99.90;;;;;;4994815;28;20365;-70
2023/09/08 01:45:19;;;;;;;14.90;11.85;;;23.90;99.90;;;;;;4995142;28;20022;-74
2023/09/08 01:47:45;;;;;;;12.77;11.48;;;23.80;99.90;;;;;;4994997;28;20080;-74
2023/09/08 01:50:10;;;;;;;12.73;11.50;;;23.80;99.90;;;;;;4994989;28;20031;-70
2023/09/08 01:52:36;;;;;;;11.80;10.77;;;23.80;99.90;;;;;;4995057;28;20030;-71
2023/09/08 01:55:01;;;;;;;12.55;11.35;;;23.90;99.90;;;;;;4994888;28;20049;-70
2023/09/08 01:57:27;;;;;;;13.45;10.48;;;23.80;99.90;;;;;;4994829;28;20101;-73
2023/09/08 01:59:53;;;;;;;12.93;11.60;;;23.80;99.90;;;;;;4994806;28;20424;-74
2023/09/08 02:02:18;;;;;;;12.07;10.88;;;23.80;99.90;;;;;;4994594;28;20033;-71
2023/09/08 02:04:44;;;;;;;12.30;11.15;;;23.80;99.90;;;;;;4994745;28;20072;-71
2023/09/08 02:07:09;;;;;;;14.25;11.40;;;23.70;99.90;;;;;;4994851;28;20022;-74
2023/09/08 02:09:38;;;;;;;11.82;10.73;;;23.70;99.90;;;;;;4994614;28;20084;-72
2023/09/08 02:12:04;;;;;;;12.45;11.27;;;23.70;99.90;;;;;;4994534;28;20027;-71
2023/09/08 02:14:30;;;;;;;14.32;11.77;;;23.70;99.90;;;;;;4994392;28;20460;-71
2023/09/08 02:16:56;;;;;;;14.75;11.70;;;23.70;99.90;;;;;;4994348;28;20042;-70
2023/09/08 02:19:22;;;;;;;13.48;11.65;;;23.70;99.90;;;;;;4994126;28;20046;-75
2023/09/08 02:21:48;;;;;;;12.68;11.48;;;23.70;99.90;;;;;;4994439;28;20073;-74
2023/09/08 02:24:14;;;;;;;12.75;11.63;;;23.70;99.90;;;;;;4993596;28;20057;-71
2023/09/08 02:26:40;;;;;;;11.80;10.70;;;23.60;99.90;;;;;;4994340;28;20019;-71
2023/09/08 02:29:05;;;;;;;13.98;11.90;;;23.60;99.90;;;;;;4994354;28;20026;-71
2023/09/08 02:31:31;;;;;;;14.02;11.63;;;23.60;99.90;;;;;;4994017;28;20025;-73
2023/09/08 02:33:57;;;;;;;11.52;10.38;;;23.60;99.90;;;;;;4994254;28;20037;-71
2023/09/08 02:36:25;;;;;;;12.38;10.48;;;23.50;99.90;;;;;;4994220;28;20471;-74
2023/09/08 02:38:55;;;;;;;11.23;10.23;;;23.60;99.90;;;;;;4994144;28;20026;-73
2023/09/08 02:41:21;;;;;;;15.15;12.02;;;23.50;99.90;;;;;;4993777;28;20042;-71
2023/09/08 02:43:47;;;;;;;12.43;11.18;;;23.50;99.90;;;;;;4993351;28;20101;-71
2023/09/08 02:46:13;;;;;;;12.80;10.85;;;23.50;99.90;;;;;;4992368;28;20030;-71
2023/09/08 02:48:39;;;;;;;12.02;10.95;;;23.50;99.90;;;;;;4994293;28;20164;-75
2023/09/08 02:51:05;;;;;;;16.38;11.20;;;23.50;99.90;;;;;;4993952;28;20536;-70
2023/09/08 02:53:30;;;;;;;15.13;10.10;;;23.40;99.90;;;;;;4993959;28;20034;-70
2023/09/08 02:55:56;;;;;;;14.18;11.00;;;23.50;99.90;;;;;;4993697;28;20034;-70
2023/09/08 02:58:22;;;;;;;12.95;11.20;;;23.40;99.90;;;;;;4994058;28;20077;-74
2023/09/08 03:00:48;;;;;;;17.52;11.10;;;23.40;99.90;;;;;;4993419;28;20034;-75
2023/09/08 03:03:14;;;;;;;16.50;11.30;;;23.40;99.90;;;;;;4994009;28;20053;-74
2023/09/08 03:05:39;;;;;;;19.58;11.38;;;23.30;99.90;;;;;;4993646;28;20495;-74
2023/09/08 03:08:05;;;;;;;15.13;11.68;;;23.30;99.90;;;;;;4993890;28;20022;-75
2023/09/08 03:10:34;;;;;;;14.35;11.02;;;23.40;99.90;;;;;;4994003;28;20065;-74
2023/09/08 03:13:00;;;;;;;13.02;11.13;;;23.30;99.90;;;;;;4993833;28;20022;-70
2023/09/08 03:15:28;;;;;;;14.07;11.07;;;23.30;99.90;;;;;;4993544;28;20105;-70
2023/09/08 03:17:54;;;;;;;13.80;10.65;;;23.30;99.90;;;;;;4993698;28;20030;-70
2023/09/08 03:20:20;;;;;;;16.27;11.38;;;23.30;99.90;;;;;;4993334;28;20049;-70
2023/09/08 03:22:46;;;;;;;13.50;10.38;;;23.30;99.90;;;;;;4993605;28;20027;-71
2023/09/08 03:25:13;;;;;;;11.98;10.75;;;23.30;99.90;;;;;;4993773;28;20022;-70
2023/09/08 03:27:39;;;;;;;11.07;10.00;;;23.20;99.90;;;;;;4993753;28;20026;-70
2023/09/08 03:30:05;;;;;;;11.95;10.73;;;23.30;99.90;;;;;;4993272;28;20038;-70
2023/09/08 03:32:31;;;;;;;12.07;10.80;;;23.20;99.90;;;;;;4993423;28;20015;-71
2023/09/08 03:34:57;;;;;;;15.07;10.77;;;23.20;99.90;;;;;;4995922;28;20360;-70
2023/09/08 03:37:22;;;;;;;11.82;10.48;;;23.20;99.90;;;;;;4996125;28;20502;-70
2023/09/08 03:39:48;;;;;;;11.82;10.52;;;23.20;99.90;;;;;;4997297;28;20027;-70
2023/09/08 03:42:13;;;;;;;14.38;12.05;;;23.20;99.90;;;;;;4997358;28;20030;-69
2023/09/08 03:44:39;;;;;;;11.55;10.35;;;23.10;99.90;;;;;;4997244;28;20472;-70
2023/09/08 03:47:05;;;;;;;13.35;12.10;;;23.20;99.90;;;;;;4997239;28;20027;-70
2023/09/08 03:49:31;;;;;;;13.32;11.45;;;23.10;99.90;;;;;;4997344;28;20062;-70
2023/09/08 03:51:58;;;;;;;13.80;12.40;;;23.10;99.90;;;;;;4997113;28;20494;-70
2023/09/08 03:54:23;;;;;;;12.65;11.45;;;23.10;99.90;;;;;;4997193;28;20038;-71
2023/09/08 03:56:49;;;;;;;13.40;12.02;;;23.10;99.90;;;;;;4996954;28;20033;-70
2023/09/08 03:59:14;;;;;;;12.57;11.32;;;23.00;99.90;;;;;;4996889;28;20035;-70
2023/09/08 04:01:40;;;;;;;13.65;11.30;;;23.10;99.90;;;;;;4996986;28;20468;-70
2023/09/08 04:04:05;;;;;;;12.98;11.68;;;23.00;99.90;;;;;;4997023;28;20033;-74
2023/09/08 04:06:31;;;;;;;13.45;11.57;;;23.00;99.90;;;;;;4996941;28;20027;-70
2023/09/08 04:08:57;;;;;;;14.45;11.48;;;23.00;99.90;;;;;;4996841;28;20037;-70
2023/09/08 04:11:22;;;;;;;14.45;12.50;;;23.00;99.90;;;;;;4996959;28;20042;-70
2023/09/08 04:13:48;;;;;;;13.52;12.13;;;22.90;99.90;;;;;;4996663;28;20019;-70
2023/09/08 04:16:13;;;;;;;13.77;12.23;;;22.90;99.90;;;;;;4996652;28;20546;-70
2023/09/08 04:18:39;;;;;;;15.10;11.63;;;22.90;99.90;;;;;;4996883;28;20031;-69
2023/09/08 04:21:07;;;;;;;13.55;11.98;;;22.90;99.90;;;;;;4996560;28;20048;-70
2023/09/08 04:23:33;;;;;;;17.58;11.93;;;22.90;99.90;;;;;;4996566;28;20105;-70
2023/09/08 04:25:58;;;;;;;13.50;12.18;;;22.90;99.90;;;;;;4996681;28;20515;-70
2023/09/08 04:28:24;;;;;;;12.15;10.88;;;22.90;99.90;;;;;;4996204;28;20084;-69
2023/09/08 04:30:50;;;;;;;15.50;11.73;;;22.90;99.90;;;;;;4996445;28;20023;-70
2023/09/08 04:33:15;;;;;;;14.35;12.85;;;22.80;99.90;;;;;;4996293;28;20057;-70
2023/09/08 04:35:41;;;;;;;15.02;12.90;;;22.80;99.90;;;;;;4996521;28;20023;-69
2023/09/08 04:38:07;;;;;;;11.82;10.68;;;22.70;99.90;;;;;;4996203;28;20030;-70
2023/09/08 04:40:33;;;;;;;17.73;12.65;;;22.70;99.90;;;;;;4996490;28;20423;-71
2023/09/08 04:42:58;;;;;;;13.57;12.15;;;22.80;99.90;;;;;;4996030;28;20029;-73
2023/09/08 04:45:24;;;;;;;15.25;11.73;;;22.80;99.90;;;;;;4995811;28;20056;-70
2023/09/08 04:47:50;;;;;;;12.65;11.23;;;22.70;99.90;;;;;;4995965;28;20026;-73
2023/09/08 04:50:16;;;;;;;12.45;11.20;;;22.70;99.90;;;;;;4996159;28;20033;-70
2023/09/08 04:52:41;;;;;;;14.93;11.55;;;22.80;99.90;;;;;;4996087;28;20031;-73
2023/09/08 04:55:07;;;;;;;14.45;11.40;;;22.70;99.90;;;;;;4995918;28;20018;-71
2023/09/08 04:57:33;;;;;;;12.65;11.35;;;22.70;99.90;;;;;;4996169;28;20026;-70
2023/09/08 04:59:58;;;;;;;12.10;10.95;;;22.70;99.90;;;;;;4996031;28;20057;-73
2023/09/08 05:02:24;;;;;;;12.40;11.30;;;22.80;99.90;;;;;;4993011;28;20506;-74
2023/09/08 05:04:50;;;;;;;12.90;11.60;;;22.70;99.90;;;;;;4994912;28;20038;-73
2023/09/08 05:07:15;;;;;;;11.77;10.38;;;22.70;99.90;;;;;;4993139;28;20015;-73
2023/09/08 05:09:41;;;;;;;14.57;10.73;;;22.70;99.90;;;;;;4994806;28;20030;-73
2023/09/08 05:12:07;;;;;;;10.40;9.50;;;22.70;99.90;;;;;;4995804;28;20380;-73
2023/09/08 05:14:32;;;;;;;11.00;9.60;;;22.80;99.90;;;;;;4995609;28;20026;-70
2023/09/08 05:16:58;;;;;;;11.80;10.38;;;22.80;99.90;;;;;;4995767;28;20027;-69
2023/09/08 05:19:24;;;;;;;11.85;9.65;;;22.80;99.90;;;;;;4994898;28;20491;-68
2023/09/08 05:21:55;;;;;;;10.43;9.32;;;22.80;99.90;;;;;;4995267;28;20042;-68
2023/09/08 05:24:20;;;;;;;9.82;8.93;;;22.80;99.90;;;;;;4988418;28;20073;-69
2023/09/08 05:26:46;;;;;;;10.00;8.85;;;22.80;99.90;;;;;;4993738;28;20027;-73
2023/09/08 05:29:12;;;;;;;10.68;9.57;;;22.80;99.90;;;;;;4995306;28;20030;-73
2023/09/08 05:31:38;;;;;;;12.13;9.60;;;22.90;99.90;;;;;;4993794;28;20021;-74
2023/09/08 05:34:04;;;;;;;11.70;10.20;;;22.80;99.90;;;;;;4992424;28;20042;-72
2023/09/08 05:36:30;;;;;;;11.68;9.20;;;22.80;99.90;;;;;;4993211;28;20028;-73
2023/09/08 05:38:56;;;;;;;13.27;11.38;;;22.80;99.90;;;;;;5001863;28;20037;-73
2023/09/08 05:41:22;;;;;;;10.02;9.02;;;22.90;99.90;;;;;;4995773;28;20026;-72
2023/09/08 05:43:48;;;;;;;11.20;9.63;;;22.80;99.90;;;;;;4994907;28;20055;-69
2023/09/08 05:46:13;;;;;;;12.15;8.60;;;22.80;99.90;;;;;;5007624;28;20030;-68
2023/09/08 05:48:39;;;;;;;11.55;9.88;;;22.80;99.90;;;;;;4993988;28;20133;-70
2023/09/08 05:51:06;;;;;;;10.68;8.93;;;22.80;99.90;;;;;;4994847;28;20072;-69
2023/09/08 05:53:33;;;;;;;11.35;9.98;;;22.80;99.90;;;;;;4993851;28;20392;-71
2023/09/08 05:55:58;;;;;;;10.25;9.20;;;22.90;99.90;;;;;;4990822;28;20472;-70
2023/09/08 05:58:27;;;;;;;12.57;10.65;;;22.90;99.90;;;;;;4993193;28;20160;-74
2023/09/08 06:00:53;;;;;;;10.88;9.88;;;22.90;99.90;;;;;;4992985;28;20030;-74
2023/09/08 06:03:19;;;;;;;11.80;9.32;;;22.90;99.90;;;;;;4994481;28;20029;-74
2023/09/08 06:05:45;;;;;;;12.70;9.43;;;22.90;99.90;;;;;;4994145;28;20026;-75
2023/09/08 06:08:10;;;;;;;10.27;9.20;;;22.90;99.90;;;;;;4994325;28;20038;-74
2023/09/08 06:10:36;;;;;;;10.38;9.38;;;22.90;99.90;;;;;;5000195;28;20058;-76
2023/09/08 06:13:02;;;;;;;11.68;10.48;;;23.00;99.90;;;;;;4994230;28;20034;-72
2023/09/08 06:15:28;;;;;;;11.60;10.32;;;23.00;99.90;;;;;;4993009;28;20033;-71
2023/09/08 06:17:53;;;;;;;14.05;10.25;;;23.00;99.90;;;;;;4992844;28;20439;-72
2023/09/08 06:20:19;;;;;;;14.50;10.82;;;23.00;99.90;;;;;;4990201;28;20038;-71
2023/09/08 06:22:44;;;;;;;11.80;9.63;;;23.00;99.90;;;;;;4972125;28;20387;-71
2023/09/08 06:25:10;;;;;;;12.68;10.82;;;23.00;99.90;;;;;;4969103;28;20034;-69
2023/09/08 06:27:36;;;;;;;10.65;9.65;;;23.00;99.90;;;;;;4983462;28;20077;-73
2023/09/08 06:30:02;;;;;;;11.70;10.57;;;23.00;99.90;;;;;;4978770;28;20035;-75
2023/09/08 06:32:28;;;;;;;11.13;9.85;;;23.00;99.90;;;;;;4971779;28;20018;-74
2023/09/08 06:34:53;;;;;;;12.13;10.00;;;23.00;99.90;;;;;;4978022;28;20109;-74
2023/09/08 06:37:19;;;;;;;13.43;10.55;;;23.10;99.90;;;;;;4984288;28;20046;-73
2023/09/08 06:39:45;;;;;;;11.85;9.85;;;23.00;99.90;;;;;;4972904;28;20043;-74
2023/09/08 06:42:10;;;;;;;11.40;10.20;;;23.10;99.90;;;;;;4979931;28;20063;-74
2023/09/08 06:44:36;;;;;;;11.38;9.20;;;23.10;99.90;;;;;;4989026;28;20030;-71
2023/09/08 06:47:03;;;;;;;8.57;7.78;;;23.10;99.90;;;;;;4978907;28;20019;-70
2023/09/08 06:49:29;;;;;;;10.35;8.40;;;23.10;99.90;;;;;;4965786;28;20023;-70
2023/09/08 06:51:54;;;;;;;10.55;9.18;;;23.10;99.90;;;;;;4984460;28;20064;-71
2023/09/08 06:54:20;;;;;;;10.05;9.05;;;23.10;99.90;;;;;;4975704;28;20424;-70
2023/09/08 06:56:45;;;;;;;10.30;8.90;;;23.10;99.90;;;;;;4976897;28;20023;-69
2023/09/08 06:59:11;;;;;;;12.40;8.88;;;23.10;99.90;;;;;;4987598;28;20034;-69
2023/09/08 07:01:36;;;;;;;11.40;9.00;;;23.10;99.90;;;;;;4981793;28;20062;-70
2023/09/08 07:04:02;;;;;;;11.95;9.65;;;23.20;99.90;;;;;;4986407;28;20022;-70
2023/09/08 07:06:28;;;;;;;11.25;8.63;;;23.20;99.90;;;;;;4971739;28;20034;-72
2023/09/08 07:08:53;;;;;;;12.25;9.48;;;23.20;99.90;;;;;;4974021;28;20113;-71
2023/09/08 07:11:19;;;;;;;13.02;9.68;;;23.20;99.90;;;;;;4973780;28;20037;-71
2023/09/08 07:13:45;;;;;;;14.95;10.20;;;23.20;99.90;;;;;;4974314;28;20042;-74
2023/09/08 07:16:10;;;;;;;10.63;8.95;;;23.20;99.90;;;;;;4974131;28;20035;-73
2023/09/08 07:18:37;;;;;;;16.60;9.75;;;23.30;99.90;;;;;;4974456;28;20105;-74
2023/09/08 07:21:03;;;;;;;14.38;9.07;;;23.30;99.90;;;;;;4988065;28;20503;-75
2023/09/08 07:23:29;;;;;;;12.57;9.43;;;23.30;99.90;;;;;;4991784;28;20026;-72
2023/09/08 07:25:55;;;;;;;10.25;8.98;;;23.30;99.90;;;;;;4993089;28;20026;-74
2023/09/08 07:28:20;;;;;;;19.20;10.48;;;23.30;99.90;;;;;;4993667;28;20273;-72
2023/09/08 07:30:46;;;;;;;24.27;14.25;;;23.30;99.90;;;;;;4993097;28;20054;-71
2023/09/08 07:33:12;;;;;;;31.17;14.95;;;23.40;99.90;;;;;;4993506;28;20059;-71
2023/09/08 07:35:39;;;;;;;26.70;13.80;;;23.40;99.90;;;;;;4993372;28;20376;-70
2023/09/08 07:38:04;;;;;;;24.10;13.60;;;23.40;99.90;;;;;;4993622;28;20034;-71
2023/09/08 07:40:32;;;;;;;23.45;13.88;;;23.40;99.90;;;;;;4991467;28;20480;-71
2023/09/08 07:42:57;;;;;;;20.80;12.18;;;23.50;99.90;;;;;;4991468;28;20403;-70
2023/09/08 07:45:23;;;;;;;13.82;10.15;;;23.50;99.90;;;;;;4993476;28;20496;-71
2023/09/08 07:47:48;;;;;;;14.30;10.48;;;23.50;99.90;;;;;;4993055;28;20145;-70
2023/09/08 07:50:24;;;;;;;13.10;9.60;;;23.60;99.90;;;;;;4993181;28;20077;-72
2023/09/08 07:52:51;;;;;;;14.43;10.23;;;23.60;99.90;;;;;;4993339;28;20107;-71
2023/09/08 07:55:17;;;;;;;15.82;9.40;;;23.60;99.90;;;;;;4993534;28;20029;-71
2023/09/08 07:57:45;;;;;;;13.13;9.60;;;23.60;99.90;;;;;;4993257;28;20033;-71
2023/09/08 08:00:12;;;;;;;13.73;9.27;;;23.70;99.90;;;;;;4991807;28;20034;-70
2023/09/08 08:02:41;;;;;;;10.48;9.05;;;23.70;99.90;;;;;;4991137;28;20092;-71
2023/09/08 08:05:07;;;;;;;9.43;8.55;;;23.70;99.90;;;;;;4990330;28;20482;-71
2023/09/08 08:07:33;;;;;;;10.07;8.63;;;23.80;99.90;;;;;;4990786;28;20054;-74
2023/09/08 08:09:58;;;;;;;14.68;8.80;;;23.80;99.90;;;;;;4993587;28;20033;-75
2023/09/08 08:12:24;;;;;;;10.23;8.20;;;23.90;99.90;;;;;;4993059;28;20034;-75
2023/09/08 08:14:49;;;;;;;12.23;8.85;;;23.90;99.90;;;;;;4993299;28;20026;-73
2023/09/08 08:17:17;;;;;;;10.77;8.07;;;24.00;99.90;;;;;;4992743;28;20081;-73
2023/09/08 08:19:43;;;;;;;10.90;8.18;;;24.00;99.90;;;;;;4985795;28;20034;-75
2023/09/08 08:22:08;;;;;;;13.40;7.93;;;24.10;99.90;;;;;;4975854;28;20107;-75
2023/09/08 08:24:34;;;;;;;9.80;8.68;;;24.10;99.90;;;;;;4977327;28;20030;-72
2023/09/08 08:27:02;;;;;;;11.13;8.40;;;24.10;99.90;;;;;;4959541;28;20038;-75
2023/09/08 08:29:28;;;;;;;11.07;8.23;;;24.10;99.90;;;;;;4977212;28;20065;-73
2023/09/08 08:31:54;;;;;;;13.50;9.02;;;24.10;99.90;;;;;;4977075;28;20055;-75
2023/09/08 08:34:19;;;;;;;10.93;7.63;;;24.20;99.90;;;;;;4976787;28;20523;-75
2023/09/08 08:36:45;;;;;;;9.80;6.78;;;24.20;99.90;;;;;;4976941;28;20023;-74
2023/09/08 08:39:11;;;;;;;8.77;7.15;;;24.20;99.90;;;;;;4976858;28;20109;-74
2023/09/08 08:41:39;;;;;;;7.30;6.53;;;24.20;99.90;;;;;;4976795;28;20420;-74
2023/09/08 08:44:06;;;;;;;10.13;7.65;;;24.30;99.90;;;;;;4976885;28;20019;-75
2023/09/08 08:46:34;;;;;;;8.25;7.45;;;24.30;99.90;;;;;;4976798;28;20027;-75
2023/09/08 08:49:03;;;;;;;9.73;7.97;;;24.30;99.90;;;;;;4976540;28;20022;-75
2023/09/08 08:51:30;;;;;;;8.52;7.68;;;24.30;99.90;;;;;;4976820;28;20022;-75
2023/09/08 08:53:57;;;;;;;9.20;7.85;;;24.30;99.90;;;;;;4976557;28;20027;-74
2023/09/08 08:56:23;;;;;;;10.55;7.63;;;24.30;99.90;;;;;;4976692;28;20503;-75
2023/09/08 08:58:50;;;;;;;9.07;8.27;;;24.40;99.90;;;;;;4976562;28;20074;-75
2023/09/08 09:01:19;;;;;;;11.43;7.35;;;24.40;99.90;;;;;;4976731;28;20023;-73
2023/09/08 09:03:49;;;;;;;9.90;8.20;;;24.40;99.90;;;;;;4976506;28;20025;-75
2023/09/08 09:06:15;;;;;;;9.55;8.13;;;24.40;99.90;;;;;;4976464;28;20501;-73
2023/09/08 09:08:43;;;;;;;15.00;8.55;;;24.40;99.90;;;;;;4976199;28;20069;-75
2023/09/08 09:11:09;;;;;;;8.07;6.97;;;24.50;99.90;;;;;;4976426;28;20030;-74
2023/09/08 09:13:35;;;;;;;6.65;5.50;;;24.40;99.90;;;;;;4976218;28;20042;-75
2023/09/08 09:16:03;;;;;;;8.77;7.88;;;24.50;99.90;;;;;;4976384;28;20026;-74
2023/09/08 09:18:32;;;;;;;11.15;7.13;;;24.50;99.90;;;;;;4976104;28;20106;-74
2023/09/08 09:21:01;;;;;;;8.32;5.60;;;24.50;99.90;;;;;;4976099;28;20041;-75
2023/09/08 09:23:32;;;;;;;6.63;5.95;;;24.50;99.90;;;;;;4975958;28;20113;-74
2023/09/08 09:25:58;;;;;;;6.70;6.07;;;24.50;99.90;;;;;;4976106;28;20027;-75
2023/09/08 09:28:25;;;;;;;11.55;9.93;;;24.50;99.90;;;;;;4958531;28;20022;-74
2023/09/08 09:30:54;;;;;;;13.40;8.85;;;24.60;99.90;;;;;;4975932;28;20019;-76
2023/09/08 09:33:20;;;;;;;15.98;10.95;;;24.60;99.90;;;;;;4975532;28;20492;-75
2023/09/08 09:35:51;;;;;;;10.55;8.38;;;24.70;99.90;;;;;;4975884;28;20027;-75
2023/09/08 09:38:18;;;;;;;8.82;6.13;;;24.60;99.90;;;;;;4975946;28;20115;-75
2023/09/08 09:40:45;;;;;;;7.95;6.60;;;24.70;99.90;;;;;;4958374;28;20426;-75
2023/09/08 09:43:11;;;;;;;9.25;6.20;;;24.60;99.90;;;;;;4975729;28;20098;-72
2023/09/08 09:45:39;;;;;;;10.50;8.68;;;24.60;99.90;;;;;;4975470;28;20030;-75
2023/09/08 09:48:05;;;;;;;6.18;5.45;;;24.70;99.90;;;;;;4975792;28;20415;-75
2023/09/08 09:50:36;;;;;;;10.02;7.75;;;24.70;99.90;;;;;;4958037;28;20019;-75
2023/09/08 09:53:11;;;;;;;7.70;5.55;;;24.70;99.90;;;;;;4975588;28;20046;-75
2023/09/08 09:55:39;;;;;;;7.15;6.30;;;24.70;99.90;;;;;;4975627;28;20168;-76
2023/09/08 09:58:05;;;;;;;7.80;6.10;;;24.80;99.90;;;;;;4975613;28;20050;-72
2023/09/08 10:00:33;;;;;;;8.75;5.85;;;24.70;99.90;;;;;;4975116;28;20117;-72
2023/09/08 10:02:59;;;;;;;7.53;6.65;;;24.80;99.90;;;;;;4975254;28;20021;-74
2023/09/08 10:05:25;;;;;;;8.95;6.30;;;24.80;99.90;;;;;;4975299;28;20034;-69
2023/09/08 10:07:52;;;;;;;7.28;5.35;;;24.70;99.90;;;;;;4975665;28;20027;-71
2023/09/08 10:10:20;;;;;;;6.03;5.40;;;24.80;99.90;;;;;;4957745;28;20065;-72
2023/09/08 10:12:52;;;;;;;8.32;5.90;;;24.80;99.90;;;;;;4975108;28;20027;-76
2023/09/08 10:15:21;;;;;;;6.60;5.50;;;24.80;99.90;;;;;;4974840;28;20044;-76
2023/09/08 10:17:52;;;;;;;6.82;5.88;;;24.80;99.90;;;;;;4975164;28;20031;-76
2023/09/08 10:20:21;;;;;;;5.50;5.00;;;24.80;99.90;;;;;;4974896;28;20126;-75
2023/09/08 10:22:49;;;;;;;7.05;5.15;;;24.80;99.90;;;;;;4975014;28;20031;-77
2023/09/08 10:25:19;;;;;;;5.70;4.95;;;24.80;99.90;;;;;;4974900;28;20102;-74
2023/09/08 10:27:45;;;;;;;7.25;5.47;;;24.80;99.90;;;;;;4974932;28;20033;-72
2023/09/08 10:30:11;;;;;;;6.20;5.15;;;24.90;99.90;;;;;;4974547;28;20421;-75
2023/09/08 10:32:38;;;;;;;5.93;5.22;;;24.90;99.90;;;;;;4974916;28;20026;-69
2023/09/08 10:35:06;;;;;;;6.18;5.57;;;24.80;99.90;;;;;;4974775;28;20058;-77
2023/09/08 10:37:32;;;;;;;5.15;4.65;;;24.90;99.90;;;;;;4974849;28;20469;-69
2023/09/08 10:40:21;;;;;;;5.55;4.95;;;24.90;99.90;;;;;;4974789;28;20049;-71
2023/09/08 10:42:47;;;;;;;6.15;5.55;;;24.90;99.90;;;;;;4974741;28;20089;-76
2023/09/08 10:45:20;;;;;;;7.93;5.80;;;24.90;99.90;;;;;;4973792;28;20027;-76
2023/09/08 10:47:45;;;;;;;5.75;5.25;;;24.90;99.90;;;;;;4974806;28;20023;-74
2023/09/08 10:50:18;;;;;;;6.47;5.03;;;25.00;99.90;;;;;;4974741;28;20077;-76
2023/09/08 10:52:44;;;;;;;5.75;4.90;;;25.00;99.90;;;;;;4974606;28;20027;-75
2023/09/08 10:55:12;;;;;;;9.98;5.03;;;25.00;99.90;;;;;;4974293;28;20063;-74
2023/09/08 10:57:44;;;;;;;6.88;5.22;;;25.00;99.90;;;;;;4974356;28;20034;-76
2023/09/08 11:00:11;;;;;;;6.15;5.53;;;25.00;99.90;;;;;;4974435;28;20027;-76
2023/09/08 11:02:41;;;;;;;5.45;4.95;;;25.00;99.90;;;;;;4974440;28;20121;-75
2023/09/08 11:05:09;;;;;;;5.07;4.50;;;25.00;99.90;;;;;;4974182;28;20051;-75
2023/09/08 11:07:38;;;;;;;7.45;5.40;;;25.00;99.90;;;;;;4974505;28;20532;-74
2023/09/08 11:10:08;;;;;;;6.15;5.30;;;25.00;99.90;;;;;;4974380;28;20026;-75
2023/09/08 11:12:34;;;;;;;5.32;4.68;;;25.00;99.90;;;;;;4974065;28;20031;-76
2023/09/08 11:15:07;;;;;;;6.18;5.00;;;25.00;99.90;;;;;;4974440;28;20026;-74
2023/09/08 11:17:34;;;;;;;5.57;4.70;;;25.10;99.90;;;;;;4974351;28;20025;-76
2023/09/08 11:20:00;;;;;;;5.78;4.80;;;25.00;99.90;;;;;;4973995;28;20416;-75
2023/09/08 11:22:26;;;;;;;4.95;4.43;;;25.10;99.90;;;;;;4974458;28;20090;-72
2023/09/08 11:24:56;;;;;;;5.13;4.70;;;25.10;99.90;;;;;;4974217;28;20027;-71
2023/09/08 11:27:22;;;;;;;5.60;5.07;;;25.10;99.90;;;;;;4973991;28;20027;-76
2023/09/08 11:29:49;;;;;;;7.18;5.07;;;25.10;99.90;;;;;;4974125;28;20030;-76
2023/09/08 11:32:15;;;;;;;5.88;5.20;;;25.10;99.90;;;;;;4974036;28;20412;-74
2023/09/08 11:34:41;;;;;;;7.43;4.70;;;25.10;99.90;;;;;;4974269;28;20480;-75
2023/09/08 11:37:13;;;;;;;4.75;4.20;;;25.10;99.90;;;;;;4974057;28;20023;-75
2023/09/08 11:39:39;;;;;;;6.50;4.47;;;25.10;99.90;;;;;;4974375;28;20047;-76
2023/09/08 11:42:06;;;;;;;5.25;4.55;;;25.10;99.90;;;;;;4973633;28;20081;-75
2023/09/08 11:44:34;;;;;;;5.00;4.60;;;25.10;99.90;;;;;;4974209;28;20027;-70
2023/09/08 11:47:00;;;;;;;6.43;5.10;;;25.20;99.90;;;;;;4974053;28;20026;-75
2023/09/08 11:49:26;;;;;;;5.55;5.00;;;25.20;99.90;;;;;;4974004;28;20052;-70
2023/09/08 11:51:52;;;;;;;5.35;4.85;;;25.20;99.90;;;;;;4973966;28;20369;-74
2023/09/08 11:54:18;;;;;;;5.50;4.50;;;25.20;99.90;;;;;;4974271;28;20030;-70
2023/09/08 11:56:45;;;;;;;5.55;4.50;;;25.20;99.90;;;;;;4977022;28;20030;-70
2023/09/08 11:59:12;;;;;;;5.28;4.78;;;25.20;99.90;;;;;;4977642;28;20031;-71
2023/09/08 12:01:38;;;;;;;4.95;4.47;;;25.20;99.90;;;;;;4977576;28;20055;-70
2023/09/08 12:04:04;;;;;;;5.05;4.55;;;25.20;99.90;;;;;;4977711;28;20480;-70
2023/09/08 12:06:30;;;;;;;4.75;4.35;;;25.20;99.90;;;;;;4977529;28;20034;-70
2023/09/08 12:09:02;;;;;;;5.55;4.82;;;25.30;99.90;;;;;;4977749;28;21553;-70
2023/09/08 12:11:37;;;;;;;4.63;4.03;;;25.30;99.90;;;;;;4977137;28;20027;-70
2023/09/08 12:14:07;;;;;;;6.38;4.55;;;25.30;99.90;;;;;;4977361;28;20093;-72
2023/09/08 12:16:33;;;;;;;5.57;5.07;;;25.30;99.90;;;;;;4977334;28;20103;-70
2023/09/08 12:18:59;;;;;;;5.78;4.10;;;25.30;99.90;;;;;;4977221;28;20046;-75
2023/09/08 12:21:24;;;;;;;6.32;4.90;;;25.30;99.90;;;;;;4977533;28;20106;-70
2023/09/08 12:23:51;;;;;;;4.97;4.55;;;25.30;99.90;;;;;;4977232;28;20031;-70
2023/09/08 12:26:17;;;;;;;5.30;4.80;;;25.30;99.90;;;;;;4976808;28;20030;-75
2023/09/08 12:28:43;;;;;;;5.15;4.65;;;25.30;99.90;;;;;;4977120;28;20031;-71
2023/09/08 12:31:09;;;;;;;5.38;4.70;;;25.40;99.90;;;;;;4977121;28;20038;-70
2023/09/08 12:33:35;;;;;;;5.32;4.63;;;25.40;99.90;;;;;;4977083;28;20035;-71